createdAt,value
2019-05-26T00:02:46.006Z,61.72
2019-05-26T00:06:52.794Z,62.09
2019-05-26T00:10:59.565Z,61.87
2019-05-26T00:15:07.796Z,62.03
2019-05-26T00:19:14.673Z,61.91
2019-05-26T00:23:21.455Z,61.79
2019-05-26T00:27:28.292Z,61.92
2019-05-26T00:31:35.133Z,62.31
2019-05-26T00:35:41.867Z,62.06
2019-05-26T00:39:48.689Z,61.90
2019-05-26T00:43:55.504Z,62.05
2019-05-26T00:48:02.274Z,62.23
2019-05-26T00:52:09.162Z,61.86
2019-05-26T00:56:16.092Z,62.24
2019-05-26T01:00:40.100Z,62.37
2019-05-26T01:04:46.818Z,62.64
2019-05-26T01:08:53.615Z,62.56
2019-05-26T01:13:00.313Z,62.68
2019-05-26T01:17:07.119Z,63.16
2019-05-26T01:21:13.978Z,63.03
2019-05-26T01:25:20.724Z,63.00
2019-05-26T01:29:27.465Z,63.16
2019-05-26T01:33:35.146Z,63.55
2019-05-26T01:37:42.696Z,64.05
2019-05-26T01:41:49.562Z,63.74
2019-05-26T01:45:56.353Z,63.45
2019-05-26T01:50:03.053Z,63.58
2019-05-26T01:54:09.819Z,63.49
2019-05-26T01:58:16.518Z,64.16
2019-05-26T02:02:23.380Z,64.21
2019-05-26T02:06:30.213Z,63.58
2019-05-26T02:10:37.033Z,63.84
2019-05-26T02:14:43.918Z,63.85
2019-05-26T02:18:50.698Z,63.66
2019-05-26T02:22:57.413Z,63.27
2019-05-26T02:27:04.149Z,63.58
2019-05-26T02:31:10.984Z,63.47
2019-05-26T02:35:18.027Z,63.69
2019-05-26T02:39:24.906Z,63.85
2019-05-26T02:43:31.718Z,64.16
2019-05-26T02:47:38.446Z,64.22
2019-05-26T02:51:45.190Z,64.50
2019-05-26T02:55:52.201Z,64.60
2019-05-26T02:59:59.004Z,65.28
2019-05-26T03:04:05.757Z,65.17
2019-05-26T03:08:13.033Z,65.70
2019-05-26T03:12:22.244Z,66.26
2019-05-26T03:16:34.125Z,66.03
2019-05-26T03:20:41.696Z,66.15
2019-05-26T03:24:53.052Z,66.91
2019-05-26T03:29:00.338Z,67.57
2019-05-26T03:33:07.417Z,68.19
2019-05-26T03:37:14.143Z,68.74
2019-05-26T03:41:21.212Z,69.89
2019-05-26T03:46:15.802Z,70.85
2019-05-26T03:50:22.579Z,71.08
2019-05-26T03:54:29.369Z,71.47
2019-05-26T03:58:36.112Z,72.01
2019-05-26T04:02:42.935Z,72.34
2019-05-26T04:06:49.940Z,73.37
2019-05-26T04:10:56.667Z,74.06
2019-05-26T04:15:03.451Z,74.15
2019-05-26T04:19:10.317Z,73.66
2019-05-26T04:23:17.031Z,74.61
2019-05-26T04:27:23.867Z,74.97
2019-05-26T04:31:30.736Z,75.11
2019-05-26T04:35:37.627Z,74.98
2019-05-26T04:39:44.383Z,74.94
2019-05-26T04:43:51.131Z,74.89
2019-05-26T04:47:59.465Z,75.33
2019-05-26T04:52:06.324Z,74.81
2019-05-26T04:56:13.076Z,75.22
2019-05-26T05:00:21.218Z,74.38
2019-05-26T05:04:28.298Z,75.20
2019-05-26T05:08:35.177Z,74.82
2019-05-26T05:12:41.950Z,73.15
2019-05-26T05:17:39.769Z,73.97
2019-05-26T05:21:46.601Z,73.55
2019-05-26T05:25:53.378Z,73.05
2019-05-26T05:30:00.416Z,72.48
2019-05-26T05:34:07.154Z,71.73
2019-05-26T05:38:14.018Z,71.46
2019-05-26T05:42:20.737Z,70.93
2019-05-26T05:46:29.664Z,70.66
2019-05-26T05:50:39.130Z,69.81
2019-05-26T05:54:45.018Z,69.75
2019-05-26T05:58:51.738Z,68.64
2019-05-26T06:02:58.753Z,67.45
2019-05-26T06:07:06.785Z,66.79
2019-05-26T06:11:16.805Z,66.13
2019-05-26T06:15:22.370Z,65.86
2019-05-26T06:19:29.202Z,65.03
2019-05-26T06:23:37.127Z,64.65
2019-05-26T06:27:44.109Z,63.82
2019-05-26T06:31:51.086Z,62.88
2019-05-26T06:35:58.012Z,62.58
2019-05-26T06:40:05.399Z,61.98
2019-05-26T06:44:12.312Z,61.53
2019-05-26T06:48:19.067Z,60.61
2019-05-26T06:52:26.461Z,59.58
2019-05-26T06:56:33.465Z,59.03
2019-05-26T07:00:42.028Z,58.90
2019-05-26T07:04:48.868Z,58.33
2019-05-26T07:08:55.578Z,57.84
2019-05-26T07:13:02.327Z,57.00
2019-05-26T07:17:09.148Z,55.64
2019-05-26T07:21:15.999Z,55.52
2019-05-26T07:25:22.898Z,52.96
2019-05-26T07:29:29.771Z,52.94
2019-05-26T07:33:36.493Z,52.54
2019-05-26T07:37:43.378Z,52.38
2019-05-26T07:42:08.255Z,51.61
2019-05-26T07:45:58.742Z,52.66
2019-05-26T07:50:06.256Z,50.65
2019-05-26T07:54:25.195Z,50.65
2019-05-26T07:58:21.592Z,49.42
2019-05-26T08:02:28.395Z,48.95
2019-05-26T08:06:35.312Z,48.69
2019-05-26T08:10:45.499Z,47.78
2019-05-26T08:14:54.496Z,46.95
2019-05-26T08:19:01.722Z,46.88
2019-05-26T08:23:08.600Z,46.23
2019-05-26T08:27:15.383Z,45.11
2019-05-26T08:31:22.236Z,44.23
2019-05-26T08:35:29.219Z,42.74
2019-05-26T08:39:36.256Z,42.37
2019-05-26T08:43:43.148Z,42.41
2019-05-26T08:47:49.994Z,41.21
2019-05-26T08:51:56.716Z,40.56
2019-05-26T08:56:03.469Z,41.00
2019-05-26T09:00:10.893Z,39.84
2019-05-26T09:04:19.038Z,39.55
2019-05-26T09:08:27.469Z,39.18
2019-05-26T09:12:35.472Z,39.39
2019-05-26T09:16:42.334Z,39.39
2019-05-26T09:20:49.259Z,38.97
2019-05-26T09:24:56.077Z,38.42
2019-05-26T09:29:02.911Z,39.04
2019-05-26T09:33:09.814Z,38.78
2019-05-26T09:37:16.660Z,38.78
2019-05-26T09:41:23.453Z,38.52
2019-05-26T09:45:30.228Z,37.63
2019-05-26T09:49:37.208Z,36.58
2019-05-26T09:53:44.108Z,37.23
2019-05-26T09:57:51.021Z,36.24
2019-05-26T10:01:57.832Z,36.43
2019-05-26T10:06:04.848Z,36.46
2019-05-26T10:10:11.976Z,38.23
2019-05-26T10:14:18.899Z,37.94
2019-05-26T10:18:25.787Z,37.64
2019-05-26T10:22:32.547Z,36.24
2019-05-26T10:26:39.359Z,36.24
2019-05-26T10:30:46.038Z,36.37
2019-05-26T10:34:52.784Z,37.04
2019-05-26T10:38:59.666Z,37.04
2019-05-26T10:43:06.654Z,35.91
2019-05-26T10:47:14.485Z,35.84
2019-05-26T10:51:21.315Z,35.96
2019-05-26T10:55:28.166Z,36.24
2019-05-26T10:59:35.225Z,35.85
2019-05-26T11:03:42.562Z,37.25
2019-05-26T11:07:51.754Z,36.51
2019-05-26T11:11:58.889Z,36.74
2019-05-26T11:16:05.952Z,36.50
2019-05-26T11:20:18.144Z,34.67
2019-05-26T11:24:58.217Z,35.19
2019-05-26T11:29:50.364Z,33.29
2019-05-26T11:34:01.841Z,32.36
2019-05-26T11:43:26.204Z,31.93
2019-05-26T11:47:37.431Z,30.25
2019-05-26T11:51:48.567Z,30.47
2019-05-26T11:55:57.127Z,30.73
2019-05-26T12:00:08.410Z,30.60
2019-05-26T12:04:17.175Z,30.29
2019-05-26T12:08:28.314Z,30.19
2019-05-26T12:12:35.386Z,30.97
2019-05-26T12:16:43.968Z,29.61
2019-05-26T12:20:52.050Z,30.26
2019-05-26T12:25:01.592Z,30.09
2019-05-26T12:29:08.328Z,30.05
2019-05-26T12:33:15.370Z,29.95
2019-05-26T12:37:31.229Z,29.73
2019-05-26T12:41:44.284Z,31.49
2019-05-26T12:45:53.793Z,30.55
2019-05-26T12:50:01.027Z,31.02
2019-05-26T12:54:09.595Z,31.74
2019-05-26T12:58:16.681Z,33.11
2019-05-26T13:02:25.072Z,31.72
2019-05-26T13:06:32.241Z,32.12
2019-05-26T13:10:41.252Z,31.01
2019-05-26T13:14:56.980Z,31.73
2019-05-26T13:19:06.868Z,31.88
2019-05-26T13:23:10.721Z,30.03
2019-05-26T13:27:22.582Z,29.25
2019-05-26T13:31:29.831Z,32.48
2019-05-26T13:35:36.769Z,30.61
2019-05-26T13:39:48.187Z,29.79
2019-05-26T13:43:55.194Z,29.98
2019-05-26T13:48:04.267Z,29.16
2019-05-26T13:52:49.459Z,29.65
2019-05-26T13:56:58.155Z,29.42
2019-05-26T14:01:06.588Z,30.28
2019-05-26T14:05:16.653Z,29.76
2019-05-26T14:09:23.723Z,30.56
2019-05-26T14:13:30.706Z,30.35
2019-05-26T14:17:43.575Z,28.75
2019-05-26T14:21:50.553Z,28.86
2019-05-26T14:25:57.594Z,28.36
2019-05-26T14:30:04.789Z,28.00
2019-05-26T14:34:11.763Z,26.93
2019-05-26T14:38:18.565Z,27.33
2019-05-26T14:42:25.381Z,27.56
2019-05-26T14:46:32.215Z,27.94
2019-05-26T14:50:40.824Z,28.08
2019-05-26T14:54:47.951Z,27.61
2019-05-26T14:58:54.775Z,27.67
2019-05-26T15:03:01.889Z,28.06
2019-05-26T15:07:13.449Z,28.03
2019-05-26T15:11:22.715Z,28.48
2019-05-26T15:15:34.982Z,28.02
2019-05-26T15:19:41.434Z,27.79
2019-05-26T15:23:53.995Z,28.57
2019-05-26T15:28:01.165Z,28.28
2019-05-26T15:32:08.304Z,28.66
2019-05-26T15:36:16.147Z,28.50
2019-05-26T15:40:27.256Z,29.34
2019-05-26T15:44:34.429Z,29.82
2019-05-26T15:48:46.011Z,29.47
2019-05-26T15:52:53.109Z,29.66
2019-05-26T15:57:01.695Z,29.91
2019-05-26T16:01:09.203Z,30.30
2019-05-26T16:05:16.667Z,30.51
2019-05-26T16:09:26.348Z,30.03
2019-05-26T16:13:36.617Z,30.04
2019-05-26T16:17:44.033Z,29.98
2019-05-26T16:21:51.946Z,30.56
2019-05-26T16:25:59.179Z,30.09
2019-05-26T16:30:14.809Z,29.97
2019-05-26T16:34:22.185Z,30.06
2019-05-26T16:38:31.291Z,30.47
2019-05-26T16:42:38.357Z,30.70
2019-05-26T16:46:55.957Z,30.22
2019-05-26T16:50:56.527Z,30.46
2019-05-26T16:55:08.331Z,30.14
2019-05-26T16:59:15.621Z,30.52
2019-05-26T17:03:22.674Z,30.44
2019-05-26T17:07:32.897Z,30.55
2019-05-26T17:11:39.886Z,30.37
2019-05-26T17:15:48.467Z,30.51
2019-05-26T17:19:55.673Z,30.81
2019-05-26T17:24:02.905Z,30.74
2019-05-26T17:28:09.694Z,31.05
2019-05-26T17:32:18.224Z,31.15
2019-05-26T17:36:25.090Z,32.06
2019-05-26T17:40:33.854Z,33.34
2019-05-26T17:44:43.676Z,33.83
2019-05-26T17:48:50.623Z,34.59
2019-05-26T17:52:57.553Z,34.75
2019-05-26T17:57:04.357Z,35.39
2019-05-26T18:01:11.163Z,35.62
2019-05-26T18:05:18.244Z,36.14
2019-05-26T18:09:41.483Z,36.46
2019-05-26T18:13:36.396Z,36.70
2019-05-26T18:17:47.549Z,36.70
2019-05-26T18:21:52.112Z,36.69
2019-05-26T18:25:58.978Z,37.06
2019-05-26T18:30:06.583Z,37.55
2019-05-26T18:34:13.465Z,38.15
2019-05-26T18:38:20.394Z,38.37
2019-05-26T18:42:27.297Z,38.59
2019-05-26T18:46:34.237Z,38.69
2019-05-26T18:50:41.205Z,38.86
2019-05-26T18:54:49.238Z,38.92
2019-05-26T18:58:56.177Z,39.15
2019-05-26T19:03:02.924Z,39.50
2019-05-26T19:07:09.911Z,39.50
2019-05-26T19:11:16.748Z,39.68
2019-05-26T19:15:23.500Z,39.78
2019-05-26T19:19:30.733Z,40.00
2019-05-26T19:23:37.887Z,40.03
2019-05-26T19:27:47.113Z,40.47
2019-05-26T19:31:54.119Z,41.52
2019-05-26T19:36:00.989Z,42.02
2019-05-26T19:40:08.473Z,42.62
2019-05-26T19:44:15.795Z,42.95
2019-05-26T19:48:35.017Z,43.11
2019-05-26T19:52:31.332Z,43.31
2019-05-26T19:56:38.923Z,43.33
2019-05-26T20:00:45.989Z,43.54
2019-05-26T20:04:53.440Z,43.41
2019-05-26T20:09:00.227Z,43.67
2019-05-26T20:13:07.108Z,43.67
2019-05-26T20:17:13.985Z,43.77
2019-05-26T20:21:20.736Z,44.03
2019-05-26T20:25:27.521Z,43.96
2019-05-26T20:29:44.445Z,44.47
2019-05-26T20:33:55.332Z,44.36
2019-05-26T20:38:05.068Z,44.69
2019-05-26T20:42:16.510Z,45.00
2019-05-26T20:46:23.417Z,44.98
2019-05-26T20:50:30.301Z,45.32
2019-05-26T20:54:37.527Z,45.74
2019-05-26T20:58:44.531Z,45.46
2019-05-26T21:02:51.435Z,46.04
2019-05-26T21:06:59.337Z,45.98
2019-05-26T21:11:06.000Z,46.14
2019-05-26T21:15:13.115Z,46.41
2019-05-26T21:19:20.107Z,46.41
2019-05-26T21:23:26.928Z,46.83
2019-05-26T21:27:33.610Z,47.00
2019-05-26T21:31:43.518Z,47.42
2019-05-26T21:35:50.414Z,47.40
2019-05-26T21:39:57.234Z,47.60
2019-05-26T21:44:04.036Z,47.73
2019-05-26T21:48:10.836Z,48.05
2019-05-26T21:52:17.675Z,48.21
2019-05-26T21:56:24.558Z,48.29
2019-05-26T22:00:35.309Z,48.75
2019-05-26T22:04:42.327Z,48.72
2019-05-26T22:08:49.422Z,49.17
2019-05-26T22:12:56.183Z,49.86
2019-05-26T22:17:03.276Z,50.16
2019-05-26T22:21:10.068Z,50.13
2019-05-26T22:25:17.029Z,50.82
2019-05-26T22:29:24.074Z,51.13
2019-05-26T22:33:30.872Z,51.23
2019-05-26T22:37:37.616Z,51.94
2019-05-26T22:41:44.781Z,52.23
2019-05-26T22:45:51.681Z,52.59
2019-05-26T22:50:01.425Z,52.86
2019-05-26T22:54:08.260Z,52.61
2019-05-26T22:58:14.957Z,53.35
2019-05-26T23:02:21.928Z,53.75
2019-05-26T23:06:28.714Z,53.61
2019-05-26T23:10:35.557Z,54.06
2019-05-26T23:14:42.292Z,53.94
2019-05-26T23:18:55.035Z,53.99
2019-05-26T23:23:01.781Z,54.23
2019-05-26T23:27:08.544Z,54.35
2019-05-26T23:31:17.085Z,54.48
2019-05-26T23:35:23.984Z,54.54
2019-05-26T23:39:30.690Z,55.03
2019-05-26T23:43:37.459Z,54.72
2019-05-26T23:47:44.260Z,54.85
2019-05-26T23:51:51.291Z,54.78
2019-05-26T23:55:57.970Z,54.52
